Mays Landing, NJ

9:50 AM EST on February 23, 2017 (GMT -0500)
Cedar Point | | Change Station

Elev 59 ft 39.46 °N, 74.67 °W | Updated 25 seconds ago

Partly Cloudy
Partly Cloudy
64.8 °F
Feels Like 64.8 °F
N
2.0
Wind Variable Wind from NNE

Today
High -- | Low -- °F
--% Chance of Precip.
Yesterday
High -- | Low -- °F
Precip. -- in
Pressure 29.92 in
Visibility 10.0 miles
Clouds Mostly Cloudy 3900 ft
Mostly Cloudy 6500 ft
Overcast 8000 ft
Dew Point 53 °F
Humidity 68%
Rainfall 0.00 in
Snow Depth Not available.
6:40 AM 5:44 PM
Waning Crescent, 10% visible
METAR KACY 231354Z 22006KT 10SM BKN039 BKN065 OVC080 12/10 A2992 RMK AO2 SLP132 T01220100
Pressure 29.92 in
Visibility 10.0 miles
Clouds Mostly Cloudy 3900 ft
Mostly Cloudy 6500 ft
Overcast 8000 ft
Dew Point 53 °F
Humidity 68%
Rainfall 0.00 in
Snow Depth Not available.
6:40 AM 5:44 PM
Waning Crescent, 10% visible
METAR KACY 231354Z 22006KT 10SM BKN039 BKN065 OVC080 12/10 A2992 RMK AO2 SLP132 T01220100

Get Your Daily Forecast Email!

Thanks for signing up!

Be on the lookout for a verification email in your inbox.

You'll start receiving the daily forecast at 8 AM.

×

10-Day Weather Forecast

Almanac

Astronomy

Feb. 23, 2017 Rise Set
Actual Time
Civil Twilight
Nautical Twilight
Astronomical Twilight
Moon
Length of Visible Light
Length of Day
Tomorrow will be .
, % of the Moon is Illuminated

Today's Extremes

State Highs State Lows

Community

WunderPhotos

Upload Photos

1,962,540 photos uploaded!

WunderBlog® & News

Nearby

Air Quality

  Air Quality AQ Index Pollutant
Not available.

Snow Depth

Station Depth Elevation

Earthquake Activity

City Distance Mag. Time & Date
Minimum magnitude displayed is 2.5.

Coastal Water Temperatures

Place Temperature

Stations

Nearby Weather Stations

Station Location Temp. Windchill Dew Point Humidity Wind Precip. Elev Updated Type
                   

Watches & Warnings

There are currently no watches in effect.